sensor_id;sensor_type;location;lat;lon;timestamp;P1;durP1;ratioP1;P2;durP2;ratioP2
18931;SDS011;9598;50.954;3.112;2023-02-24T00:02:57;13.73;;;3.50;;
18931;SDS011;9598;50.954;3.112;2023-02-24T00:08:06;8.45;;;2.92;;
18931;SDS011;9598;50.954;3.112;2023-02-24T00:13:08;10.45;;;3.17;;
18931;SDS011;9598;50.954;3.112;2023-02-24T00:18:12;10.70;;;2.72;;
18931;SDS011;9598;50.954;3.112;2023-02-24T00:23:16;7.88;;;2.88;;
18931;SDS011;9598;50.954;3.112;2023-02-24T00:28:18;10.02;;;2.80;;
18931;SDS011;9598;50.954;3.112;2023-02-24T00:33:20;10.55;;;2.85;;
18931;SDS011;9598;50.954;3.112;2023-02-24T00:38:25;11.25;;;2.85;;
18931;SDS011;9598;50.954;3.112;2023-02-24T00:43:31;7.88;;;2.95;;
18931;SDS011;9598;50.954;3.112;2023-02-24T00:48:37;7.53;;;2.58;;
18931;SDS011;9598;50.954;3.112;2023-02-24T00:53:43;8.15;;;2.90;;
18931;SDS011;9598;50.954;3.112;2023-02-24T00:58:45;9.60;;;2.80;;
18931;SDS011;9598;50.954;3.112;2023-02-24T01:03:48;8.60;;;3.25;;
18931;SDS011;9598;50.954;3.112;2023-02-24T01:08:57;10.98;;;3.03;;
18931;SDS011;9598;50.954;3.112;2023-02-24T01:14:02;10.60;;;2.80;;
18931;SDS011;9598;50.954;3.112;2023-02-24T01:19:06;6.18;;;2.10;;
18931;SDS011;9598;50.954;3.112;2023-02-24T01:24:10;9.40;;;2.90;;
18931;SDS011;9598;50.954;3.112;2023-02-24T01:29:14;7.47;;;2.60;;
18931;SDS011;9598;50.954;3.112;2023-02-24T01:34:17;9.48;;;2.75;;
18931;SDS011;9598;50.954;3.112;2023-02-24T01:39:21;9.50;;;2.15;;
18931;SDS011;9598;50.954;3.112;2023-02-24T01:50:05;7.03;;;2.38;;
18931;SDS011;9598;50.954;3.112;2023-02-24T01:55:15;7.00;;;2.45;;
18931;SDS011;9598;50.954;3.112;2023-02-24T02:00:22;6.90;;;2.30;;
18931;SDS011;9598;50.954;3.112;2023-02-24T02:05:37;4.30;;;2.15;;
18931;SDS011;9598;50.954;3.112;2023-02-24T02:10:43;3.83;;;1.65;;
18931;SDS011;9598;50.954;3.112;2023-02-24T02:15:50;5.47;;;2.17;;
18931;SDS011;9598;50.954;3.112;2023-02-24T02:26:39;6.47;;;2.28;;
18931;SDS011;9598;50.954;3.112;2023-02-24T02:32:14;4.13;;;2.08;;
18931;SDS011;9598;50.954;3.112;2023-02-24T02:37:38;6.57;;;2.17;;
18931;SDS011;9598;50.954;3.112;2023-02-24T02:42:49;6.50;;;2.50;;
18931;SDS011;9598;50.954;3.112;2023-02-24T02:47:58;9.25;;;2.95;;
18931;SDS011;9598;50.954;3.112;2023-02-24T02:53:05;8.48;;;2.25;;
18931;SDS011;9598;50.954;3.112;2023-02-24T02:58:12;7.00;;;2.10;;
18931;SDS011;9598;50.954;3.112;2023-02-24T03:03:18;5.88;;;2.13;;
18931;SDS011;9598;50.954;3.112;2023-02-24T03:08:22;9.23;;;2.50;;
18931;SDS011;9598;50.954;3.112;2023-02-24T03:13:29;3.08;;;2.10;;
18931;SDS011;9598;50.954;3.112;2023-02-24T03:18:37;5.72;;;2.03;;
18931;SDS011;9598;50.954;3.112;2023-02-24T03:23:46;5.63;;;2.30;;
18931;SDS011;9598;50.954;3.112;2023-02-24T03:28:53;5.30;;;1.95;;
18931;SDS011;9598;50.954;3.112;2023-02-24T03:34:04;3.97;;;1.90;;
18931;SDS011;9598;50.954;3.112;2023-02-24T03:39:12;4.20;;;1.52;;
18931;SDS011;9598;50.954;3.112;2023-02-24T03:44:25;6.68;;;2.58;;
18931;SDS011;9598;50.954;3.112;2023-02-24T03:49:29;5.10;;;2.00;;
18931;SDS011;9598;50.954;3.112;2023-02-24T03:54:41;4.22;;;1.92;;
18931;SDS011;9598;50.954;3.112;2023-02-24T04:00:00;4.97;;;2.28;;
18931;SDS011;9598;50.954;3.112;2023-02-24T04:05:21;3.30;;;2.05;;
18931;SDS011;9598;50.954;3.112;2023-02-24T04:10:35;7.57;;;2.40;;
18931;SDS011;9598;50.954;3.112;2023-02-24T04:15:44;5.38;;;2.85;;
18931;SDS011;9598;50.954;3.112;2023-02-24T04:20:50;5.57;;;2.83;;
18931;SDS011;9598;50.954;3.112;2023-02-24T04:25:56;5.97;;;2.20;;
18931;SDS011;9598;50.954;3.112;2023-02-24T04:31:00;7.90;;;2.63;;
18931;SDS011;9598;50.954;3.112;2023-02-24T04:36:09;6.95;;;2.85;;
18931;SDS011;9598;50.954;3.112;2023-02-24T04:41:14;7.38;;;2.70;;
18931;SDS011;9598;50.954;3.112;2023-02-24T04:46:20;8.32;;;2.83;;
18931;SDS011;9598;50.954;3.112;2023-02-24T04:51:22;5.82;;;2.65;;
18931;SDS011;9598;50.954;3.112;2023-02-24T04:56:26;7.18;;;2.70;;
18931;SDS011;9598;50.954;3.112;2023-02-24T05:01:28;6.82;;;3.00;;
18931;SDS011;9598;50.954;3.112;2023-02-24T05:06:31;4.90;;;2.10;;
18931;SDS011;9598;50.954;3.112;2023-02-24T05:11:34;5.85;;;2.63;;
18931;SDS011;9598;50.954;3.112;2023-02-24T05:16:37;5.97;;;2.75;;
18931;SDS011;9598;50.954;3.112;2023-02-24T05:21:39;6.95;;;2.53;;
18931;SDS011;9598;50.954;3.112;2023-02-24T05:26:43;8.68;;;2.45;;
18931;SDS011;9598;50.954;3.112;2023-02-24T05:31:46;6.10;;;2.60;;
18931;SDS011;9598;50.954;3.112;2023-02-24T05:36:48;7.22;;;2.80;;
18931;SDS011;9598;50.954;3.112;2023-02-24T05:41:53;6.22;;;2.70;;
18931;SDS011;9598;50.954;3.112;2023-02-24T05:46:56;5.95;;;2.50;;
18931;SDS011;9598;50.954;3.112;2023-02-24T05:52:00;6.80;;;3.10;;
18931;SDS011;9598;50.954;3.112;2023-02-24T05:57:08;9.32;;;2.70;;
18931;SDS011;9598;50.954;3.112;2023-02-24T06:02:13;7.20;;;2.53;;
18931;SDS011;9598;50.954;3.112;2023-02-24T06:07:17;6.88;;;3.15;;
18931;SDS011;9598;50.954;3.112;2023-02-24T06:12:23;4.72;;;2.33;;
18931;SDS011;9598;50.954;3.112;2023-02-24T06:17:27;5.28;;;2.60;;
18931;SDS011;9598;50.954;3.112;2023-02-24T06:22:29;7.38;;;2.78;;
18931;SDS011;9598;50.954;3.112;2023-02-24T06:27:34;7.53;;;2.55;;
18931;SDS011;9598;50.954;3.112;2023-02-24T06:32:38;6.32;;;2.58;;
18931;SDS011;9598;50.954;3.112;2023-02-24T06:37:40;7.60;;;3.05;;
18931;SDS011;9598;50.954;3.112;2023-02-24T06:42:44;4.32;;;2.70;;
18931;SDS011;9598;50.954;3.112;2023-02-24T06:47:47;6.65;;;2.72;;
18931;SDS011;9598;50.954;3.112;2023-02-24T06:52:53;12.75;;;3.20;;
18931;SDS011;9598;50.954;3.112;2023-02-24T06:57:59;5.90;;;2.70;;
18931;SDS011;9598;50.954;3.112;2023-02-24T07:03:04;8.13;;;3.20;;
18931;SDS011;9598;50.954;3.112;2023-02-24T07:08:18;8.77;;;3.35;;
18931;SDS011;9598;50.954;3.112;2023-02-24T07:13:23;10.55;;;6.70;;
18931;SDS011;9598;50.954;3.112;2023-02-24T07:18:28;9.90;;;5.38;;
18931;SDS011;9598;50.954;3.112;2023-02-24T07:23:30;9.35;;;3.17;;
18931;SDS011;9598;50.954;3.112;2023-02-24T07:28:34;8.30;;;3.30;;
18931;SDS011;9598;50.954;3.112;2023-02-24T07:33:39;6.80;;;3.25;;
18931;SDS011;9598;50.954;3.112;2023-02-24T07:38:44;4.65;;;2.78;;
18931;SDS011;9598;50.954;3.112;2023-02-24T07:43:48;9.40;;;3.53;;
18931;SDS011;9598;50.954;3.112;2023-02-24T07:48:51;8.68;;;3.70;;
18931;SDS011;9598;50.954;3.112;2023-02-24T07:53:54;11.45;;;4.35;;
18931;SDS011;9598;50.954;3.112;2023-02-24T07:59:00;10.18;;;4.70;;
18931;SDS011;9598;50.954;3.112;2023-02-24T08:04:07;6.32;;;4.43;;
18931;SDS011;9598;50.954;3.112;2023-02-24T08:09:15;10.73;;;3.92;;
18931;SDS011;9598;50.954;3.112;2023-02-24T08:14:21;5.90;;;3.17;;
18931;SDS011;9598;50.954;3.112;2023-02-24T08:19:26;8.98;;;2.78;;
18931;SDS011;9598;50.954;3.112;2023-02-24T08:24:32;7.75;;;3.17;;
18931;SDS011;9598;50.954;3.112;2023-02-24T08:29:37;7.97;;;2.97;;
18931;SDS011;9598;50.954;3.112;2023-02-24T08:34:57;5.88;;;3.10;;
18931;SDS011;9598;50.954;3.112;2023-02-24T08:40:02;7.80;;;2.80;;
18931;SDS011;9598;50.954;3.112;2023-02-24T08:45:06;11.48;;;4.00;;
18931;SDS011;9598;50.954;3.112;2023-02-24T08:50:09;7.22;;;3.55;;
18931;SDS011;9598;50.954;3.112;2023-02-24T08:55:11;9.82;;;3.30;;
18931;SDS011;9598;50.954;3.112;2023-02-24T09:00:14;7.55;;;3.42;;
18931;SDS011;9598;50.954;3.112;2023-02-24T09:05:37;6.25;;;3.30;;
18931;SDS011;9598;50.954;3.112;2023-02-24T09:10:39;7.75;;;3.53;;
18931;SDS011;9598;50.954;3.112;2023-02-24T09:15:46;7.68;;;3.42;;
18931;SDS011;9598;50.954;3.112;2023-02-24T09:20:50;9.43;;;3.78;;
18931;SDS011;9598;50.954;3.112;2023-02-24T09:26:06;9.90;;;3.60;;
18931;SDS011;9598;50.954;3.112;2023-02-24T09:31:11;12.77;;;4.45;;
18931;SDS011;9598;50.954;3.112;2023-02-24T09:36:16;10.65;;;3.95;;
18931;SDS011;9598;50.954;3.112;2023-02-24T09:41:28;8.48;;;3.75;;
18931;SDS011;9598;50.954;3.112;2023-02-24T09:46:47;8.52;;;3.78;;
18931;SDS011;9598;50.954;3.112;2023-02-24T09:51:53;10.93;;;4.38;;
18931;SDS011;9598;50.954;3.112;2023-02-24T09:57:10;11.95;;;4.53;;
18931;SDS011;9598;50.954;3.112;2023-02-24T10:02:21;5.57;;;3.55;;
18931;SDS011;9598;50.954;3.112;2023-02-24T10:07:39;8.48;;;3.88;;
18931;SDS011;9598;50.954;3.112;2023-02-24T10:12:43;8.70;;;4.28;;
18931;SDS011;9598;50.954;3.112;2023-02-24T10:17:50;12.80;;;4.13;;
18931;SDS011;9598;50.954;3.112;2023-02-24T10:22:55;7.13;;;4.15;;
18931;SDS011;9598;50.954;3.112;2023-02-24T10:28:05;6.00;;;3.63;;
18931;SDS011;9598;50.954;3.112;2023-02-24T10:33:21;11.40;;;4.18;;
18931;SDS011;9598;50.954;3.112;2023-02-24T10:38:28;9.45;;;4.03;;
18931;SDS011;9598;50.954;3.112;2023-02-24T10:43:33;9.15;;;4.80;;
18931;SDS011;9598;50.954;3.112;2023-02-24T10:48:50;8.68;;;4.35;;
18931;SDS011;9598;50.954;3.112;2023-02-24T10:54:09;9.80;;;5.03;;
18931;SDS011;9598;50.954;3.112;2023-02-24T10:59:41;6.78;;;3.97;;
18931;SDS011;9598;50.954;3.112;2023-02-24T11:04:59;8.25;;;3.90;;
18931;SDS011;9598;50.954;3.112;2023-02-24T11:10:26;7.63;;;4.32;;
18931;SDS011;9598;50.954;3.112;2023-02-24T11:15:32;7.15;;;4.13;;
18931;SDS011;9598;50.954;3.112;2023-02-24T11:20:57;14.38;;;4.68;;
18931;SDS011;9598;50.954;3.112;2023-02-24T11:26:02;11.52;;;5.68;;
18931;SDS011;9598;50.954;3.112;2023-02-24T11:31:14;10.63;;;4.57;;
18931;SDS011;9598;50.954;3.112;2023-02-24T11:36:29;7.28;;;4.20;;
18931;SDS011;9598;50.954;3.112;2023-02-24T11:41:39;8.30;;;4.78;;
18931;SDS011;9598;50.954;3.112;2023-02-24T11:46:45;17.70;;;5.13;;
18931;SDS011;9598;50.954;3.112;2023-02-24T11:51:52;9.57;;;4.70;;
18931;SDS011;9598;50.954;3.112;2023-02-24T11:56:56;9.77;;;4.88;;
18931;SDS011;9598;50.954;3.112;2023-02-24T12:02:01;11.77;;;5.25;;
18931;SDS011;9598;50.954;3.112;2023-02-24T12:07:17;11.52;;;6.07;;
18931;SDS011;9598;50.954;3.112;2023-02-24T12:12:23;9.55;;;6.20;;
18931;SDS011;9598;50.954;3.112;2023-02-24T12:17:32;15.02;;;8.55;;
18931;SDS011;9598;50.954;3.112;2023-02-24T12:22:42;18.98;;;8.60;;
18931;SDS011;9598;50.954;3.112;2023-02-24T12:27:54;13.80;;;9.82;;
18931;SDS011;9598;50.954;3.112;2023-02-24T12:33:08;17.05;;;8.75;;
18931;SDS011;9598;50.954;3.112;2023-02-24T12:38:29;11.07;;;7.63;;
18931;SDS011;9598;50.954;3.112;2023-02-24T12:43:41;14.80;;;6.88;;
18931;SDS011;9598;50.954;3.112;2023-02-24T12:54:18;14.60;;;8.20;;
18931;SDS011;9598;50.954;3.112;2023-02-24T12:59:24;12.88;;;7.82;;
18931;SDS011;9598;50.954;3.112;2023-02-24T13:04:38;15.95;;;8.73;;
18931;SDS011;9598;50.954;3.112;2023-02-24T13:09:47;14.02;;;9.70;;
18931;SDS011;9598;50.954;3.112;2023-02-24T13:15:01;15.68;;;10.23;;
18931;SDS011;9598;50.954;3.112;2023-02-24T13:20:08;17.42;;;10.38;;
18931;SDS011;9598;50.954;3.112;2023-02-24T13:25:18;15.27;;;10.32;;
18931;SDS011;9598;50.954;3.112;2023-02-24T13:30:23;11.35;;;8.82;;
18931;SDS011;9598;50.954;3.112;2023-02-24T13:35:37;17.83;;;9.73;;
18931;SDS011;9598;50.954;3.112;2023-02-24T13:40:40;12.98;;;10.18;;
18931;SDS011;9598;50.954;3.112;2023-02-24T13:45:43;11.68;;;9.43;;
18931;SDS011;9598;50.954;3.112;2023-02-24T13:50:59;11.35;;;9.77;;
18931;SDS011;9598;50.954;3.112;2023-02-24T14:01:44;9.25;;;8.25;;
18931;SDS011;9598;50.954;3.112;2023-02-24T14:06:49;11.18;;;9.00;;
18931;SDS011;9598;50.954;3.112;2023-02-24T14:11:56;8.60;;;7.80;;
18931;SDS011;9598;50.954;3.112;2023-02-24T14:17:01;12.75;;;8.30;;
18931;SDS011;9598;50.954;3.112;2023-02-24T14:22:03;9.82;;;8.77;;
18931;SDS011;9598;50.954;3.112;2023-02-24T14:27:06;11.23;;;8.50;;
18931;SDS011;9598;50.954;3.112;2023-02-24T14:32:22;11.38;;;9.38;;
18931;SDS011;9598;50.954;3.112;2023-02-24T14:37:26;9.88;;;8.88;;
18931;SDS011;9598;50.954;3.112;2023-02-24T14:42:32;12.57;;;8.88;;
18931;SDS011;9598;50.954;3.112;2023-02-24T14:47:35;16.08;;;9.57;;
18931;SDS011;9598;50.954;3.112;2023-02-24T14:52:42;13.00;;;9.43;;
18931;SDS011;9598;50.954;3.112;2023-02-24T14:57:51;14.90;;;9.10;;
18931;SDS011;9598;50.954;3.112;2023-02-24T15:03:00;17.25;;;9.50;;
18931;SDS011;9598;50.954;3.112;2023-02-24T15:08:15;15.13;;;8.50;;
18931;SDS011;9598;50.954;3.112;2023-02-24T15:13:32;14.10;;;9.05;;
18931;SDS011;9598;50.954;3.112;2023-02-24T15:18:37;16.85;;;8.18;;
18931;SDS011;9598;50.954;3.112;2023-02-24T15:23:40;13.15;;;8.45;;
18931;SDS011;9598;50.954;3.112;2023-02-24T15:28:45;13.38;;;7.78;;
18931;SDS011;9598;50.954;3.112;2023-02-24T15:33:58;14.88;;;7.78;;
18931;SDS011;9598;50.954;3.112;2023-02-24T15:39:04;15.77;;;7.55;;
18931;SDS011;9598;50.954;3.112;2023-02-24T15:44:26;14.02;;;7.68;;
18931;SDS011;9598;50.954;3.112;2023-02-24T15:49:31;15.23;;;8.40;;
18931;SDS011;9598;50.954;3.112;2023-02-24T15:54:33;13.02;;;8.00;;
18931;SDS011;9598;50.954;3.112;2023-02-24T15:59:40;17.67;;;7.90;;
18931;SDS011;9598;50.954;3.112;2023-02-24T16:04:42;17.67;;;7.97;;
18931;SDS011;9598;50.954;3.112;2023-02-24T16:09:45;14.60;;;6.78;;
18931;SDS011;9598;50.954;3.112;2023-02-24T16:14:50;15.55;;;5.43;;
18931;SDS011;9598;50.954;3.112;2023-02-24T16:19:55;19.42;;;5.10;;
18931;SDS011;9598;50.954;3.112;2023-02-24T16:24:57;15.98;;;4.57;;
18931;SDS011;9598;50.954;3.112;2023-02-24T16:30:00;19.83;;;6.53;;
18931;SDS011;9598;50.954;3.112;2023-02-24T16:35:03;16.83;;;5.45;;
18931;SDS011;9598;50.954;3.112;2023-02-24T16:40:14;16.90;;;5.30;;
18931;SDS011;9598;50.954;3.112;2023-02-24T16:45:24;12.98;;;4.63;;
18931;SDS011;9598;50.954;3.112;2023-02-24T16:50:28;15.75;;;4.53;;
18931;SDS011;9598;50.954;3.112;2023-02-24T16:55:33;12.10;;;4.88;;
18931;SDS011;9598;50.954;3.112;2023-02-24T17:00:38;13.60;;;4.13;;
18931;SDS011;9598;50.954;3.112;2023-02-24T17:05:41;8.00;;;4.10;;
18931;SDS011;9598;50.954;3.112;2023-02-24T17:10:43;15.40;;;4.57;;
18931;SDS011;9598;50.954;3.112;2023-02-24T17:15:48;15.55;;;5.47;;
18931;SDS011;9598;50.954;3.112;2023-02-24T17:20:54;15.18;;;5.15;;
18931;SDS011;9598;50.954;3.112;2023-02-24T17:25:58;16.10;;;6.47;;
18931;SDS011;9598;50.954;3.112;2023-02-24T17:31:04;13.77;;;4.75;;
18931;SDS011;9598;50.954;3.112;2023-02-24T17:36:06;18.17;;;6.53;;
18931;SDS011;9598;50.954;3.112;2023-02-24T17:41:08;13.88;;;5.18;;
18931;SDS011;9598;50.954;3.112;2023-02-24T17:46:12;11.23;;;4.68;;
18931;SDS011;9598;50.954;3.112;2023-02-24T17:51:14;14.68;;;5.03;;
18931;SDS011;9598;50.954;3.112;2023-02-24T17:56:17;11.20;;;5.47;;
18931;SDS011;9598;50.954;3.112;2023-02-24T18:01:20;14.80;;;4.88;;
18931;SDS011;9598;50.954;3.112;2023-02-24T18:06:23;11.98;;;5.00;;
18931;SDS011;9598;50.954;3.112;2023-02-24T18:11:25;13.60;;;5.00;;
18931;SDS011;9598;50.954;3.112;2023-02-24T18:16:29;13.57;;;4.97;;
18931;SDS011;9598;50.954;3.112;2023-02-24T18:21:31;13.57;;;5.75;;
18931;SDS011;9598;50.954;3.112;2023-02-24T18:26:33;14.38;;;6.35;;
18931;SDS011;9598;50.954;3.112;2023-02-24T18:31:37;9.60;;;5.53;;
18931;SDS011;9598;50.954;3.112;2023-02-24T18:36:39;13.23;;;5.57;;
18931;SDS011;9598;50.954;3.112;2023-02-24T18:41:41;15.75;;;5.88;;
18931;SDS011;9598;50.954;3.112;2023-02-24T18:46:45;10.65;;;5.20;;
18931;SDS011;9598;50.954;3.112;2023-02-24T18:51:47;14.70;;;6.95;;
18931;SDS011;9598;50.954;3.112;2023-02-24T18:56:49;12.38;;;4.63;;
18931;SDS011;9598;50.954;3.112;2023-02-24T19:01:53;8.32;;;4.43;;
18931;SDS011;9598;50.954;3.112;2023-02-24T19:06:56;12.25;;;4.40;;
18931;SDS011;9598;50.954;3.112;2023-02-24T19:11:58;9.63;;;5.00;;
18931;SDS011;9598;50.954;3.112;2023-02-24T19:17:03;10.13;;;5.97;;
18931;SDS011;9598;50.954;3.112;2023-02-24T19:22:05;12.18;;;5.78;;
18931;SDS011;9598;50.954;3.112;2023-02-24T19:27:07;8.63;;;4.22;;
18931;SDS011;9598;50.954;3.112;2023-02-24T19:32:10;10.82;;;5.85;;
18931;SDS011;9598;50.954;3.112;2023-02-24T19:37:13;10.88;;;4.60;;
18931;SDS011;9598;50.954;3.112;2023-02-24T19:42:15;6.80;;;3.58;;
18931;SDS011;9598;50.954;3.112;2023-02-24T19:47:18;9.32;;;3.60;;
18931;SDS011;9598;50.954;3.112;2023-02-24T19:52:20;5.93;;;3.15;;
18931;SDS011;9598;50.954;3.112;2023-02-24T19:57:23;9.82;;;4.72;;
18931;SDS011;9598;50.954;3.112;2023-02-24T20:02:27;8.23;;;3.92;;
18931;SDS011;9598;50.954;3.112;2023-02-24T20:07:29;10.35;;;4.43;;
18931;SDS011;9598;50.954;3.112;2023-02-24T20:12:31;11.82;;;4.22;;
18931;SDS011;9598;50.954;3.112;2023-02-24T20:17:34;6.78;;;3.22;;
18931;SDS011;9598;50.954;3.112;2023-02-24T20:22:36;6.68;;;3.42;;
18931;SDS011;9598;50.954;3.112;2023-02-24T20:27:39;7.95;;;4.65;;
18931;SDS011;9598;50.954;3.112;2023-02-24T20:32:42;9.27;;;2.75;;
18931;SDS011;9598;50.954;3.112;2023-02-24T20:37:44;10.50;;;3.88;;
18931;SDS011;9598;50.954;3.112;2023-02-24T20:42:46;8.70;;;3.47;;
18931;SDS011;9598;50.954;3.112;2023-02-24T20:47:50;7.03;;;2.80;;
18931;SDS011;9598;50.954;3.112;2023-02-24T20:52:52;9.60;;;4.57;;
18931;SDS011;9598;50.954;3.112;2023-02-24T20:57:54;11.55;;;5.22;;
18931;SDS011;9598;50.954;3.112;2023-02-24T21:02:58;6.47;;;3.45;;
18931;SDS011;9598;50.954;3.112;2023-02-24T21:08:01;6.65;;;3.05;;
18931;SDS011;9598;50.954;3.112;2023-02-24T21:13:04;9.48;;;2.67;;
18931;SDS011;9598;50.954;3.112;2023-02-24T21:18:08;4.47;;;2.25;;
18931;SDS011;9598;50.954;3.112;2023-02-24T21:23:10;6.53;;;3.00;;
18931;SDS011;9598;50.954;3.112;2023-02-24T21:28:13;6.20;;;3.03;;
18931;SDS011;9598;50.954;3.112;2023-02-24T21:33:16;7.13;;;4.68;;
18931;SDS011;9598;50.954;3.112;2023-02-24T21:38:20;7.90;;;4.72;;
18931;SDS011;9598;50.954;3.112;2023-02-24T21:43:22;7.07;;;4.28;;
18931;SDS011;9598;50.954;3.112;2023-02-24T21:48:27;4.82;;;3.70;;
18931;SDS011;9598;50.954;3.112;2023-02-24T21:53:29;7.07;;;3.90;;
18931;SDS011;9598;50.954;3.112;2023-02-24T21:58:32;10.68;;;5.28;;
18931;SDS011;9598;50.954;3.112;2023-02-24T22:03:36;9.02;;;4.65;;
18931;SDS011;9598;50.954;3.112;2023-02-24T22:08:38;6.55;;;3.80;;
18931;SDS011;9598;50.954;3.112;2023-02-24T22:13:45;11.18;;;5.38;;
18931;SDS011;9598;50.954;3.112;2023-02-24T22:18:50;8.07;;;4.35;;
18931;SDS011;9598;50.954;3.112;2023-02-24T22:23:55;7.13;;;3.47;;
18931;SDS011;9598;50.954;3.112;2023-02-24T22:28:59;14.13;;;4.63;;
18931;SDS011;9598;50.954;3.112;2023-02-24T22:34:04;8.52;;;3.42;;
18931;SDS011;9598;50.954;3.112;2023-02-24T22:39:08;8.75;;;3.30;;
18931;SDS011;9598;50.954;3.112;2023-02-24T22:44:10;10.52;;;2.75;;
18931;SDS011;9598;50.954;3.112;2023-02-24T22:49:15;10.98;;;2.78;;
18931;SDS011;9598;50.954;3.112;2023-02-24T22:54:17;8.77;;;3.08;;
18931;SDS011;9598;50.954;3.112;2023-02-24T22:59:19;8.30;;;2.42;;
18931;SDS011;9598;50.954;3.112;2023-02-24T23:04:23;6.93;;;2.30;;
18931;SDS011;9598;50.954;3.112;2023-02-24T23:09:28;7.82;;;2.13;;
18931;SDS011;9598;50.954;3.112;2023-02-24T23:14:30;4.85;;;2.13;;
18931;SDS011;9598;50.954;3.112;2023-02-24T23:19:33;5.78;;;2.42;;
18931;SDS011;9598;50.954;3.112;2023-02-24T23:24:36;8.18;;;2.50;;
18931;SDS011;9598;50.954;3.112;2023-02-24T23:29:38;8.93;;;3.40;;
18931;SDS011;9598;50.954;3.112;2023-02-24T23:34:41;12.30;;;2.70;;
18931;SDS011;9598;50.954;3.112;2023-02-24T23:39:43;12.90;;;3.28;;
18931;SDS011;9598;50.954;3.112;2023-02-24T23:44:46;10.65;;;2.70;;
18931;SDS011;9598;50.954;3.112;2023-02-24T23:49:50;6.25;;;2.50;;
18931;SDS011;9598;50.954;3.112;2023-02-24T23:54:53;6.30;;;2.47;;
18931;SDS011;9598;50.954;3.112;2023-02-24T23:59:55;7.35;;;2.20;;
